Terminal Aerodrome Forecast
Issued by NWS

Home | Current Version | Previous Version | Text Only | Print | Product List | Glossary On
Versions: 1 2 3 4 5 6 7 8 9 10 11 12 13 14
000
FTUS42 TJSJ 290118 AAA
TAFKPK
TAF AMD
TKPK 290118Z 2901/2924 08010KT P6SM SCT018 SCT040 OVC110
      TEMPO 2901/2903 BKN015
     FM291330 09012KT P6SM SCT020 SCT060
     FM292330 08008KT P6SM SCT018
      AMD NOT SKED 2902/2911=

USA.gov is the U.S. government's official web portal to all federal, state and local government web resources and services.